TimePST,TemperatureF,Dew PointF,Humidity,Sea Level PressureIn,VisibilityMPH,Wind Direction,Wind SpeedMPH,Gust SpeedMPH,PrecipitationIn,Events,Conditions,WindDirDegrees,DateUTC
12:01 AM,46.4,41.0,81,30.08,10.0,South,11.5,24.2,0.00,Rain,Light Rain,180,2013-01-07 08:01:00
12:53 AM,46.0,42.1,86,30.07,10.0,South,16.1,20.7,0.01,Rain,Light Rain,170,2013-01-07 08:53:00
1:53 AM,46.0,42.1,86,30.08,10.0,South,10.4,-,0.00,,Overcast,180,2013-01-07 09:53:00
2:13 AM,46.4,42.8,87,30.06,10.0,South,11.5,-,0.00,Rain,Light Rain,170,2013-01-07 10:13:00
2:28 AM,46.4,42.8,87,30.06,10.0,SSE,13.8,-,0.00,Rain,Light Rain,160,2013-01-07 10:28:00
2:44 AM,46.4,42.8,87,30.05,10.0,SSE,17.3,-,0.00,,Overcast,160,2013-01-07 10:44:00
2:53 AM,46.0,42.1,86,30.06,10.0,South,16.1,-,0.00,,Overcast,170,2013-01-07 10:53:00
3:10 AM,46.4,42.8,87,30.05,10.0,South,15.0,-,N/A,,Overcast,170,2013-01-07 11:10:00
3:21 AM,46.4,42.8,87,30.05,10.0,SSE,11.5,-,0.00,Rain,Light Rain,160,2013-01-07 11:21:00
3:53 AM,46.0,42.1,86,30.04,9.0,South,13.8,-,0.00,,Overcast,170,2013-01-07 11:53:00
4:02 AM,46.4,42.8,87,30.04,10.0,South,12.7,-,N/A,,Overcast,170,2013-01-07 12:02:00
4:48 AM,46.4,42.8,87,30.03,10.0,South,10.4,-,0.00,Rain,Light Rain,180,2013-01-07 12:48:00
4:53 AM,46.9,43.0,86,30.03,10.0,South,15.0,20.7,0.01,,Overcast,180,2013-01-07 12:53:00
5:18 AM,48.2,42.8,82,30.01,10.0,South,15.0,23.0,0.00,Rain,Light Rain,180,2013-01-07 13:18:00
5:53 AM,48.0,44.1,86,30.04,7.0,SSW,18.4,23.0,0.02,Rain,Light Rain,200,2013-01-07 13:53:00
6:18 AM,46.4,42.8,87,30.02,10.0,South,19.6,26.5,0.01,Rain,Light Rain,190,2013-01-07 14:18:00
6:53 AM,46.9,44.1,90,30.04,10.0,SSW,13.8,23.0,0.04,Rain,Light Rain,200,2013-01-07 14:53:00
7:53 AM,48.0,44.1,86,30.04,10.0,South,11.5,-,0.01,Rain,Light Rain,190,2013-01-07 15:53:00
8:10 AM,48.2,44.6,87,30.04,10.0,South,10.4,-,0.00,Rain,Light Rain,180,2013-01-07 16:10:00
8:53 AM,48.9,45.0,86,30.07,10.0,South,9.2,-,0.00,,Overcast,180,2013-01-07 16:53:00
9:53 AM,50.0,46.0,86,30.09,5.0,South,13.8,23.0,0.00,,Overcast,190,2013-01-07 17:53:00
10:40 AM,50.0,46.4,87,30.12,10.0,South,15.0,23.0,N/A,,Overcast,190,2013-01-07 18:40:00
11:22 AM,51.8,46.4,82,30.13,10.0,SSW,15.0,23.0,0.00,,Overcast,200,2013-01-07 19:22:00
11:53 AM,51.1,48.0,89,30.13,10.0,SSW,8.1,-,0.00,,Overcast,200,2013-01-07 19:53:00
12:27 PM,53.6,48.2,82,30.12,10.0,SW,10.4,-,N/A,,Overcast,230,2013-01-07 20:27:00
12:53 PM,53.1,48.9,86,30.12,10.0,SW,10.4,-,N/A,,Mostly Cloudy,230,2013-01-07 20:53:00
1:53 PM,54.0,46.9,77,30.14,10.0,WSW,11.5,21.9,N/A,,Mostly Cloudy,240,2013-01-07 21:53:00
3:53 PM,51.1,46.0,83,30.18,10.0,WSW,11.5,21.9,N/A,,Partly Cloudy,250,2013-01-07 23:53:00
4:53 PM,50.0,45.0,83,30.18,10.0,West,11.5,-,N/A,,Overcast,260,2013-01-08 00:53:00
5:53 PM,50.0,44.1,80,30.20,10.0,West,12.7,-,N/A,,Overcast,260,2013-01-08 01:53:00
6:53 PM,48.9,44.1,83,30.22,10.0,SW,6.9,-,N/A,,Overcast,230,2013-01-08 02:53:00
7:53 PM,48.0,44.1,86,30.22,10.0,SW,6.9,-,N/A,,Overcast,230,2013-01-08 03:53:00
8:53 PM,46.0,43.0,89,30.24,10.0,South,4.6,-,N/A,,Overcast,190,2013-01-08 04:53:00
9:53 PM,46.0,43.0,89,30.23,10.0,West,3.5,-,N/A,,Overcast,260,2013-01-08 05:53:00
10:53 PM,45.0,43.0,93,30.22,10.0,SSW,4.6,-,N/A,,Overcast,200,2013-01-08 06:53:00
11:53 PM,46.0,42.1,86,30.23,10.0,SSE,4.6,-,N/A,,Overcast,160,2013-01-08 07:53:00